createdAt,value
2022-08-01T00:00:04.877Z,17.10
2022-08-01T00:02:32.315Z,17.00
2022-08-01T00:04:59.316Z,17.10
2022-08-01T00:07:26.046Z,17.00
2022-08-01T00:09:52.791Z,16.90
2022-08-01T00:12:19.974Z,16.90
2022-08-01T00:14:46.670Z,16.80
2022-08-01T00:17:13.518Z,16.80
2022-08-01T00:19:40.422Z,16.80
2022-08-01T00:22:07.617Z,16.70
2022-08-01T00:24:34.791Z,16.70
2022-08-01T00:27:01.612Z,16.80
2022-08-01T00:30:09.458Z,16.70
2022-08-01T00:32:15.395Z,16.70
2022-08-01T00:34:42.184Z,16.60
2022-08-01T00:37:09.078Z,16.50
2022-08-01T00:39:36.552Z,16.50
2022-08-01T00:46:11.399Z,16.50
2022-08-01T00:48:38.140Z,16.50
2022-08-01T00:51:05.534Z,16.50
2022-08-01T00:53:38.715Z,16.60
2022-08-01T00:56:19.694Z,16.70
2022-08-01T00:58:46.368Z,16.60
2022-08-01T01:01:13.134Z,16.60
2022-08-01T01:03:58.091Z,16.70
2022-08-01T01:06:39.516Z,16.60
2022-08-01T01:09:24.694Z,16.50
2022-08-01T01:11:59.608Z,16.50
2022-08-01T01:14:37.720Z,16.60
2022-08-01T01:17:06.453Z,16.60
2022-08-01T01:19:34.938Z,16.60
2022-08-01T01:22:19.133Z,16.60
2022-08-01T01:25:04.692Z,16.60
2022-08-01T01:27:43.742Z,16.50
2022-08-01T01:30:10.979Z,16.60
2022-08-01T01:32:40.336Z,16.60
2022-08-01T01:35:08.798Z,16.50
2022-08-01T01:37:36.481Z,16.60
2022-08-01T01:40:03.983Z,16.60
2022-08-01T01:42:31.734Z,16.60
2022-08-01T01:44:59.319Z,16.60
2022-08-01T01:47:26.590Z,16.60
2022-08-01T01:49:53.732Z,16.60
2022-08-01T01:52:21.116Z,16.60
2022-08-01T01:54:49.706Z,16.80
2022-08-01T01:57:17.208Z,16.70
2022-08-01T01:59:45.026Z,16.70
2022-08-01T02:02:13.094Z,16.80
2022-08-01T02:04:41.914Z,16.80
2022-08-01T02:07:09.919Z,16.70
2022-08-01T02:09:38.312Z,16.70
2022-08-01T02:12:08.703Z,16.70
2022-08-01T02:14:36.798Z,16.60
2022-08-01T02:17:05.233Z,16.60
2022-08-01T02:19:33.825Z,16.60
2022-08-01T02:22:12.089Z,16.60
2022-08-01T02:24:41.774Z,16.50
2022-08-01T02:27:10.222Z,16.50
2022-08-01T02:29:59.950Z,16.50
2022-08-01T02:32:28.087Z,16.50
2022-08-01T02:34:57.293Z,16.30
2022-08-01T02:37:24.838Z,16.40
2022-08-01T02:39:53.514Z,16.40
2022-08-01T02:42:20.244Z,16.40
2022-08-01T02:44:48.062Z,16.40
2022-08-01T02:47:15.856Z,16.40
2022-08-01T02:49:46.814Z,16.50
2022-08-01T02:52:22.027Z,16.50
2022-08-01T02:54:50.580Z,16.50
2022-08-01T02:57:17.833Z,16.70
2022-08-01T02:59:47.539Z,16.60
2022-08-01T03:02:14.985Z,16.60
2022-08-01T03:04:42.595Z,16.60
2022-08-01T03:07:10.405Z,16.70
2022-08-01T03:09:39.015Z,16.70
2022-08-01T03:12:08.720Z,16.70
2022-08-01T03:14:37.136Z,16.70
2022-08-01T03:17:05.103Z,16.70
2022-08-01T03:19:32.557Z,16.70
2022-08-01T03:21:59.964Z,16.70
2022-08-01T03:24:27.174Z,16.70
2022-08-01T03:26:54.950Z,16.70
2022-08-01T03:29:23.671Z,16.80
2022-08-01T03:31:50.558Z,16.70
2022-08-01T03:34:17.754Z,16.70
2022-08-01T03:36:50.169Z,16.70
2022-08-01T03:39:17.878Z,16.70
2022-08-01T03:41:46.640Z,16.70
2022-08-01T03:44:17.187Z,16.80
2022-08-01T03:46:47.321Z,16.70
2022-08-01T03:49:24.001Z,16.80
2022-08-01T03:51:51.876Z,16.80
2022-08-01T03:54:21.165Z,16.80
2022-08-01T03:56:49.418Z,16.80
2022-08-01T03:59:17.792Z,16.90
2022-08-01T04:01:45.115Z,16.90
2022-08-01T04:04:12.119Z,17.00
2022-08-01T04:06:39.491Z,17.00
2022-08-01T04:09:13.162Z,16.90
2022-08-01T04:11:41.069Z,17.00
2022-08-01T04:14:08.620Z,17.00
2022-08-01T04:16:36.254Z,17.10
2022-08-01T04:19:03.103Z,17.10
2022-08-01T04:21:31.957Z,17.40
2022-08-01T04:24:00.386Z,17.20
2022-08-01T04:26:27.978Z,17.30
2022-08-01T04:28:55.953Z,17.20
2022-08-01T04:31:23.727Z,17.30
2022-08-01T04:33:51.899Z,17.30
2022-08-01T04:36:20.990Z,17.30
2022-08-01T04:38:51.495Z,17.30
2022-08-01T04:41:18.766Z,17.30
2022-08-01T04:43:45.671Z,17.30
2022-08-01T04:46:12.887Z,17.20
2022-08-01T04:48:40.160Z,17.40
2022-08-01T04:51:13.172Z,17.40
2022-08-01T04:53:39.876Z,17.40
2022-08-01T04:56:06.925Z,17.40
2022-08-01T04:58:33.625Z,17.40
2022-08-01T05:01:00.470Z,17.50
2022-08-01T05:03:27.252Z,17.50
2022-08-01T05:05:53.892Z,17.50
2022-08-01T05:08:20.542Z,17.50
2022-08-01T05:10:47.290Z,17.50
2022-08-01T05:13:13.941Z,17.50
2022-08-01T05:15:40.589Z,17.60
2022-08-01T05:18:08.749Z,17.60
2022-08-01T05:20:36.400Z,17.70
2022-08-01T05:23:03.182Z,17.80
2022-08-01T05:25:49.660Z,17.80
2022-08-01T05:28:19.146Z,18.00
2022-08-01T05:30:46.211Z,17.90
2022-08-01T05:33:13.040Z,17.90
2022-08-01T05:35:48.950Z,18.00
2022-08-01T05:38:16.248Z,17.90
2022-08-01T05:40:43.024Z,18.00
2022-08-01T05:43:09.754Z,18.00
2022-08-01T05:45:36.452Z,18.10
2022-08-01T05:48:03.247Z,18.20
2022-08-01T05:50:29.940Z,18.20
2022-08-01T05:52:56.674Z,18.30
2022-08-01T05:55:23.370Z,18.40
2022-08-01T05:57:50.027Z,18.40
2022-08-01T06:00:17.209Z,18.50
2022-08-01T06:02:44.433Z,18.60
2022-08-01T06:05:13.495Z,18.70
2022-08-01T06:07:40.787Z,18.70
2022-08-01T06:10:08.551Z,18.80
2022-08-01T06:12:35.857Z,18.80
2022-08-01T06:15:03.358Z,18.90
2022-08-01T06:17:30.148Z,19.00
2022-08-01T06:19:56.989Z,19.00
2022-08-01T06:22:23.632Z,19.00
2022-08-01T06:24:51.102Z,19.00
2022-08-01T06:27:21.321Z,19.10
2022-08-01T06:29:53.820Z,19.20
2022-08-01T06:32:27.550Z,19.10
2022-08-01T06:34:55.474Z,19.10
2022-08-01T06:37:22.634Z,19.10
2022-08-01T06:39:50.659Z,19.10
2022-08-01T06:42:17.827Z,19.00
2022-08-01T06:44:44.474Z,19.00
2022-08-01T06:47:11.204Z,19.00
2022-08-01T06:49:38.153Z,19.00
2022-08-01T06:52:05.412Z,19.00
2022-08-01T06:54:32.435Z,19.00
2022-08-01T06:56:59.250Z,18.90
2022-08-01T06:59:25.909Z,18.90
2022-08-01T07:01:52.578Z,18.90
2022-08-01T07:04:19.324Z,18.90
2022-08-01T07:06:45.962Z,18.90
2022-08-01T07:09:14.577Z,18.90
2022-08-01T07:11:41.770Z,19.00
2022-08-01T07:14:08.528Z,18.90
2022-08-01T07:16:35.501Z,19.10
2022-08-01T07:19:02.188Z,19.20
2022-08-01T07:21:40.536Z,19.20
2022-08-01T07:24:14.536Z,19.10
2022-08-01T07:26:54.444Z,19.00
2022-08-01T07:29:25.141Z,19.00
2022-08-01T07:31:56.274Z,18.90
2022-08-01T07:34:23.683Z,18.80
2022-08-01T07:36:50.544Z,18.70
2022-08-01T07:39:17.282Z,18.70
2022-08-01T07:41:53.594Z,18.70
2022-08-01T07:44:30.639Z,18.90
2022-08-01T07:46:57.282Z,19.10
2022-08-01T07:49:24.021Z,19.20
2022-08-01T07:52:03.534Z,19.30
2022-08-01T07:54:34.882Z,19.40
2022-08-01T07:57:02.616Z,19.40
2022-08-01T07:59:29.384Z,19.40
2022-08-01T08:01:56.171Z,19.30
2022-08-01T08:04:23.025Z,19.20
2022-08-01T08:06:50.241Z,19.10
2022-08-01T08:09:17.140Z,19.10
2022-08-01T08:11:47.724Z,19.10
2022-08-01T08:14:15.637Z,19.30
2022-08-01T08:16:42.790Z,19.50
2022-08-01T08:19:09.553Z,19.80
2022-08-01T08:21:37.376Z,20.00
2022-08-01T08:24:26.704Z,20.20
2022-08-01T08:26:55.547Z,20.20
2022-08-01T08:29:22.940Z,20.30
2022-08-01T08:31:51.766Z,20.20
2022-08-01T08:34:20.026Z,20.20
2022-08-01T08:36:47.701Z,20.30
2022-08-01T08:39:15.095Z,20.40
2022-08-01T08:41:44.688Z,20.50
2022-08-01T08:44:17.253Z,20.50
2022-08-01T08:46:48.625Z,20.70
2022-08-01T08:49:17.085Z,20.70
2022-08-01T08:51:44.901Z,20.70
2022-08-01T08:54:12.429Z,20.60
2022-08-01T08:56:39.538Z,20.60
2022-08-01T08:59:06.302Z,20.60
2022-08-01T09:01:36.305Z,20.70
2022-08-01T09:04:03.707Z,20.80
2022-08-01T09:06:30.841Z,20.90
2022-08-01T09:08:57.996Z,21.00
2022-08-01T09:11:24.741Z,21.20
2022-08-01T09:14:11.459Z,21.30
2022-08-01T09:16:43.229Z,21.60
2022-08-01T09:19:40.668Z,21.80
2022-08-01T09:22:08.698Z,21.80
2022-08-01T09:24:36.419Z,21.40
2022-08-01T09:27:17.180Z,20.50
2022-08-01T09:29:45.625Z,20.00
2022-08-01T09:32:16.832Z,19.80
2022-08-01T09:34:43.532Z,19.70
2022-08-01T09:37:10.742Z,19.70
2022-08-01T09:39:41.158Z,19.80
2022-08-01T09:42:29.077Z,19.90
2022-08-01T09:44:56.351Z,20.10
2022-08-01T09:47:23.893Z,20.30
2022-08-01T09:49:57.503Z,20.30
2022-08-01T09:52:28.921Z,20.50
2022-08-01T09:54:56.245Z,20.70
2022-08-01T09:57:23.128Z,20.90
2022-08-01T09:59:59.887Z,21.00
2022-08-01T10:02:34.452Z,21.10
2022-08-01T10:05:07.572Z,21.20
2022-08-01T10:07:55.799Z,21.30
2022-08-01T10:10:28.982Z,21.30
2022-08-01T10:12:56.868Z,21.40
2022-08-01T10:15:24.417Z,21.50
2022-08-01T10:18:06.266Z,21.50
2022-08-01T10:20:44.100Z,21.70
2022-08-01T10:23:11.339Z,21.80
2022-08-01T10:25:47.105Z,21.90
2022-08-01T10:28:21.348Z,22.00
2022-08-01T10:30:51.008Z,22.30
2022-08-01T10:33:52.481Z,22.60
2022-08-01T10:36:09.788Z,22.80
2022-08-01T10:38:37.311Z,22.90
2022-08-01T10:41:06.429Z,22.80
2022-08-01T10:43:36.292Z,22.80
2022-08-01T10:46:04.589Z,22.80
2022-08-01T10:48:34.282Z,22.80
2022-08-01T10:51:05.213Z,22.80
2022-08-01T10:53:54.442Z,22.70
2022-08-01T10:56:26.854Z,22.60
2022-08-01T10:59:06.264Z,22.80
2022-08-01T11:01:44.731Z,22.90
2022-08-01T11:04:16.983Z,22.80
2022-08-01T11:06:44.397Z,22.80
2022-08-01T11:09:16.304Z,22.50
2022-08-01T11:12:02.899Z,22.30
2022-08-01T11:14:55.336Z,22.20
2022-08-01T11:17:37.596Z,22.40
2022-08-01T11:20:08.455Z,22.70
2022-08-01T11:22:53.910Z,22.70
2022-08-01T11:25:21.222Z,22.80
2022-08-01T11:28:30.198Z,23.00
2022-08-01T11:31:11.343Z,23.20
2022-08-01T11:33:46.996Z,23.40
2022-08-01T11:36:15.259Z,23.60
2022-08-01T11:38:47.110Z,23.60
2022-08-01T11:41:17.703Z,23.60
2022-08-01T11:44:03.211Z,23.70
2022-08-01T11:46:49.784Z,23.70
2022-08-01T11:49:29.293Z,23.70
2022-08-01T11:52:02.326Z,23.70
2022-08-01T11:54:35.149Z,23.60
2022-08-01T11:57:05.610Z,23.70
2022-08-01T11:59:59.830Z,23.60
2022-08-01T12:02:31.157Z,23.50
2022-08-01T12:05:02.064Z,23.20
2022-08-01T12:07:30.203Z,23.10
2022-08-01T12:10:09.511Z,23.00
2022-08-01T12:12:37.336Z,23.00
2022-08-01T12:15:09.911Z,23.00
2022-08-01T12:17:40.141Z,23.00
2022-08-01T12:20:12.121Z,22.90
2022-08-01T12:22:39.126Z,23.00
2022-08-01T12:25:08.710Z,23.00
2022-08-01T12:27:36.005Z,22.90
2022-08-01T12:30:05.628Z,23.10
2022-08-01T12:32:35.901Z,23.10
2022-08-01T12:35:09.345Z,23.10
2022-08-01T12:37:39.885Z,23.20
2022-08-01T12:40:13.248Z,23.20
2022-08-01T12:42:41.155Z,23.40
2022-08-01T12:45:11.725Z,23.60
2022-08-01T12:47:39.356Z,23.70
2022-08-01T12:50:22.204Z,23.70
2022-08-01T12:52:49.846Z,23.70
2022-08-01T12:55:18.700Z,23.60
2022-08-01T12:57:50.862Z,23.70
2022-08-01T13:00:20.418Z,23.70
2022-08-01T13:02:48.233Z,23.70
2022-08-01T13:05:15.743Z,23.70
2022-08-01T13:07:45.966Z,23.70
2022-08-01T13:10:13.372Z,23.90
2022-08-01T13:12:40.707Z,23.90
2022-08-01T13:15:25.139Z,23.90
2022-08-01T13:17:52.416Z,24.00
2022-08-01T13:20:22.492Z,23.90
2022-08-01T13:22:49.169Z,23.90
2022-08-01T13:25:20.845Z,23.90
2022-08-01T13:27:53.554Z,23.80
2022-08-01T13:30:21.334Z,23.80
2022-08-01T13:33:00.547Z,23.80
2022-08-01T13:35:28.409Z,23.80
2022-08-01T13:37:55.142Z,23.80
2022-08-01T13:40:26.804Z,23.80
2022-08-01T13:42:54.676Z,24.10
2022-08-01T13:45:22.397Z,24.20
2022-08-01T13:48:11.895Z,24.40
2022-08-01T13:50:36.803Z,24.40
2022-08-01T13:53:03.798Z,24.20
2022-08-01T13:55:34.440Z,24.20
2022-08-01T13:58:02.137Z,24.00
2022-08-01T14:00:28.804Z,23.90
2022-08-01T14:02:55.470Z,23.90
2022-08-01T14:05:22.223Z,23.70
2022-08-01T14:07:48.981Z,23.70
2022-08-01T14:10:20.252Z,23.60
2022-08-01T14:12:49.827Z,23.70
2022-08-01T14:15:36.586Z,23.80
2022-08-01T14:18:04.102Z,23.80
2022-08-01T14:20:32.800Z,23.90
2022-08-01T14:23:00.035Z,23.90
2022-08-01T14:26:00.795Z,24.00
2022-08-01T14:28:13.496Z,24.00
2022-08-01T14:30:42.148Z,24.00
2022-08-01T14:33:08.894Z,24.10
2022-08-01T14:36:01.381Z,24.10
2022-08-01T14:38:31.231Z,24.10
2022-08-01T14:40:59.046Z,24.00
2022-08-01T14:43:32.261Z,23.90
2022-08-01T14:46:00.400Z,23.80
2022-08-01T14:48:27.144Z,23.70
2022-08-01T14:50:53.872Z,23.70
2022-08-01T14:53:20.603Z,23.90
2022-08-01T14:55:47.643Z,24.00
2022-08-01T14:58:14.372Z,24.10
2022-08-01T15:00:41.192Z,24.10
2022-08-01T15:03:07.928Z,24.10
2022-08-01T15:05:34.727Z,24.20
2022-08-01T15:08:01.465Z,24.30
2022-08-01T15:10:28.286Z,24.20
2022-08-01T15:12:54.972Z,24.10
2022-08-01T15:15:22.067Z,24.10
2022-08-01T15:17:49.055Z,24.10
2022-08-01T15:20:15.720Z,23.90
2022-08-01T15:22:42.383Z,23.80
2022-08-01T15:25:09.280Z,23.70
2022-08-01T15:27:35.933Z,23.60
2022-08-01T15:30:04.170Z,23.60
2022-08-01T15:32:30.960Z,23.60
2022-08-01T15:34:57.722Z,23.60
2022-08-01T15:37:24.432Z,23.60
2022-08-01T15:39:51.261Z,23.60
2022-08-01T15:42:25.702Z,23.60
2022-08-01T15:44:54.096Z,23.70
2022-08-01T15:47:20.835Z,23.80
2022-08-01T15:49:52.398Z,23.90
2022-08-01T15:52:22.535Z,24.10
2022-08-01T15:54:49.746Z,24.10
2022-08-01T15:57:16.502Z,24.10
2022-08-01T15:59:43.185Z,24.00
2022-08-01T16:02:10.328Z,23.90
2022-08-01T16:04:38.827Z,23.80
2022-08-01T16:07:06.290Z,23.60
2022-08-01T16:09:33.103Z,23.50
2022-08-01T16:11:59.837Z,23.60
2022-08-01T16:14:26.607Z,23.70
2022-08-01T16:16:55.924Z,23.80
2022-08-01T16:19:23.932Z,23.90
2022-08-01T16:21:51.775Z,23.90
2022-08-01T16:24:18.562Z,24.10
2022-08-01T16:26:45.356Z,24.20
2022-08-01T16:29:12.110Z,24.20
2022-08-01T16:31:50.616Z,24.10
2022-08-01T16:34:25.548Z,24.10
2022-08-01T16:36:53.364Z,24.10
2022-08-01T16:39:23.268Z,24.10
2022-08-01T16:41:50.475Z,24.10
2022-08-01T16:44:33.299Z,24.00
2022-08-01T16:47:01.051Z,24.20
2022-08-01T16:49:27.878Z,24.20
2022-08-01T16:51:54.687Z,24.30
2022-08-01T16:54:24.967Z,24.40
2022-08-01T16:56:52.766Z,24.10
2022-08-01T16:59:19.588Z,24.00
2022-08-01T17:01:59.224Z,23.80
2022-08-01T17:04:28.767Z,23.60
2022-08-01T17:06:55.916Z,23.40
2022-08-01T17:09:22.799Z,23.40
2022-08-01T17:11:49.733Z,23.20
2022-08-01T17:14:16.460Z,23.10
2022-08-01T17:16:43.373Z,23.10
2022-08-01T17:19:10.215Z,23.00
2022-08-01T17:21:40.906Z,22.90
2022-08-01T17:24:08.480Z,22.80
2022-08-01T17:26:35.192Z,22.80
2022-08-01T17:29:01.950Z,22.70
2022-08-01T17:31:28.711Z,22.60
2022-08-01T17:33:55.483Z,22.50
2022-08-01T17:36:22.891Z,22.50
2022-08-01T17:38:49.641Z,22.40
2022-08-01T17:41:16.407Z,22.30
2022-08-01T17:43:43.134Z,22.30
2022-08-01T17:46:10.095Z,22.20
2022-08-01T17:48:36.839Z,22.20
2022-08-01T17:51:03.660Z,22.10
2022-08-01T17:53:30.919Z,22.00
2022-08-01T17:55:58.956Z,21.90
2022-08-01T17:58:51.384Z,21.90
2022-08-01T18:01:14.050Z,21.90
2022-08-01T18:03:41.800Z,21.80
2022-08-01T18:06:13.843Z,21.80
2022-08-01T18:08:42.368Z,21.70
2022-08-01T18:11:09.645Z,21.60
2022-08-01T18:13:36.615Z,21.60
2022-08-01T18:16:09.395Z,21.60
2022-08-01T18:18:38.564Z,21.50
2022-08-01T18:21:06.011Z,21.40
2022-08-01T18:23:33.775Z,21.40
2022-08-01T18:26:02.263Z,21.30
2022-08-01T18:28:35.082Z,21.20
2022-08-01T18:31:06.091Z,21.20
2022-08-01T18:33:33.376Z,21.10
2022-08-01T18:36:03.459Z,20.90
2022-08-01T18:38:35.211Z,20.80
2022-08-01T18:41:05.778Z,20.70
2022-08-01T18:43:32.521Z,20.60
2022-08-01T18:46:01.706Z,20.50
2022-08-01T18:48:28.999Z,20.50
2022-08-01T18:50:55.759Z,20.40
2022-08-01T18:53:23.974Z,20.30
2022-08-01T18:55:50.912Z,20.10
2022-08-01T18:58:17.669Z,20.00
2022-08-01T19:00:44.648Z,19.90
2022-08-01T19:03:11.527Z,19.90
2022-08-01T19:05:38.180Z,19.80
2022-08-01T19:08:07.807Z,19.70
2022-08-01T19:10:44.015Z,19.60
2022-08-01T19:13:10.907Z,19.60
2022-08-01T19:15:37.727Z,19.60
2022-08-01T19:18:04.587Z,19.50
2022-08-01T19:20:33.777Z,19.50
2022-08-01T19:23:20.420Z,19.50
2022-08-01T19:25:55.478Z,19.40
2022-08-01T19:28:26.293Z,19.30
2022-08-01T19:30:53.847Z,19.20
2022-08-01T19:33:20.771Z,19.10
2022-08-01T19:35:51.435Z,19.00
2022-08-01T19:38:18.357Z,19.00
2022-08-01T19:40:45.571Z,19.00
2022-08-01T19:43:14.302Z,19.00
2022-08-01T19:45:41.626Z,19.00
2022-08-01T19:48:08.262Z,19.00
2022-08-01T19:50:35.748Z,18.90
2022-08-01T19:53:03.569Z,18.80
2022-08-01T19:55:30.872Z,18.80
2022-08-01T19:58:24.637Z,18.80
2022-08-01T20:00:46.477Z,18.80
2022-08-01T20:03:16.318Z,18.70
2022-08-01T20:05:43.358Z,18.60
2022-08-01T20:08:10.086Z,18.60
2022-08-01T20:10:38.271Z,18.60
2022-08-01T20:13:05.447Z,18.50
2022-08-01T20:15:32.367Z,18.40
2022-08-01T20:17:59.659Z,18.40
2022-08-01T20:20:27.245Z,18.30
2022-08-01T20:22:55.814Z,18.30
2022-08-01T20:25:23.181Z,18.20
2022-08-01T20:27:50.071Z,18.00
2022-08-01T20:30:16.787Z,17.90
2022-08-01T20:32:45.979Z,18.00
2022-08-01T20:35:12.635Z,18.00
2022-08-01T20:38:03.910Z,18.00
2022-08-01T20:40:27.699Z,17.90
2022-08-01T20:42:55.390Z,17.90
2022-08-01T20:45:23.720Z,17.80
2022-08-01T20:47:50.577Z,17.80
2022-08-01T20:50:53.177Z,17.80
2022-08-01T20:53:22.269Z,17.80
2022-08-01T20:55:49.812Z,17.70
2022-08-01T20:58:21.168Z,17.50
2022-08-01T21:00:51.221Z,17.30
2022-08-01T21:03:19.794Z,17.30
2022-08-01T21:06:00.664Z,17.20
2022-08-01T21:08:32.771Z,17.20
2022-08-01T21:11:00.950Z,17.20
2022-08-01T21:13:34.836Z,17.20
2022-08-01T21:16:23.069Z,17.10
2022-08-01T21:19:10.032Z,17.20
2022-08-01T21:21:39.824Z,17.30
2022-08-01T21:24:10.197Z,17.30
2022-08-01T21:26:36.893Z,17.10
2022-08-01T21:29:05.751Z,17.10
2022-08-01T21:31:40.233Z,17.00
2022-08-01T21:34:08.600Z,16.90
2022-08-01T21:36:35.600Z,16.90
2022-08-01T21:39:04.398Z,17.00
2022-08-01T21:41:56.031Z,17.00
2022-08-01T21:44:18.910Z,17.00
2022-08-01T21:46:48.400Z,16.90
2022-08-01T21:49:15.348Z,16.80
2022-08-01T21:51:52.324Z,16.80
2022-08-01T21:54:42.752Z,16.70
2022-08-01T21:57:13.022Z,16.80
2022-08-01T21:59:50.535Z,16.70
2022-08-01T22:02:35.632Z,16.70
2022-08-01T22:05:06.558Z,16.60
2022-08-01T22:07:35.251Z,16.50
2022-08-01T22:10:03.983Z,16.50
2022-08-01T22:12:32.498Z,16.50
2022-08-01T22:15:01.786Z,16.60
2022-08-01T22:17:29.476Z,16.60
2022-08-01T22:19:56.613Z,16.60
2022-08-01T22:22:45.253Z,16.60
2022-08-01T22:25:12.282Z,16.50
2022-08-01T22:28:05.990Z,16.50
2022-08-01T22:30:29.364Z,16.50
2022-08-01T22:33:08.024Z,16.50
2022-08-01T22:35:45.638Z,16.50
2022-08-01T22:38:12.375Z,16.50
2022-08-01T22:40:45.105Z,16.40
2022-08-01T22:43:17.737Z,16.30
2022-08-01T22:46:04.523Z,16.30
2022-08-01T22:48:57.660Z,16.20
2022-08-01T22:51:32.844Z,16.10
2022-08-01T22:54:06.444Z,16.20
2022-08-01T22:56:37.229Z,16.20
2022-08-01T22:59:07.925Z,16.20
2022-08-01T23:01:35.721Z,16.10
2022-08-01T23:04:03.073Z,16.00
2022-08-01T23:06:41.219Z,15.90
2022-08-01T23:09:09.120Z,15.90
2022-08-01T23:11:36.916Z,15.80
2022-08-01T23:14:03.675Z,15.80
2022-08-01T23:16:30.659Z,15.80
2022-08-01T23:19:00.696Z,15.70
2022-08-01T23:21:31.709Z,15.70
2022-08-01T23:23:58.444Z,15.70
2022-08-01T23:26:26.923Z,15.80
2022-08-01T23:28:54.447Z,15.70
2022-08-01T23:31:23.746Z,15.80
2022-08-01T23:34:08.063Z,15.80
2022-08-01T23:36:35.151Z,15.80
2022-08-01T23:39:01.944Z,15.80
2022-08-01T23:41:28.645Z,15.80
2022-08-01T23:44:13.776Z,15.90
2022-08-01T23:46:40.689Z,15.80
2022-08-01T23:49:07.376Z,15.80
2022-08-01T23:51:34.090Z,15.70
2022-08-01T23:54:00.830Z,15.60
2022-08-01T23:56:27.856Z,15.60
2022-08-01T23:58:54.561Z,15.50
